createdAt,value
2018-12-21T00:00:23.525Z,6.16
2018-12-21T00:05:26.530Z,6.11
2018-12-21T00:10:29.364Z,6.05
2018-12-21T00:15:32.089Z,6.01
2018-12-21T00:20:35.014Z,5.97
2018-12-21T00:25:37.743Z,5.94
2018-12-21T00:30:40.271Z,5.91
2018-12-21T00:35:48.779Z,5.89
2018-12-21T00:40:57.515Z,5.87
2018-12-21T00:46:05.418Z,5.83
2018-12-21T00:51:11.109Z,5.83
2018-12-21T00:56:13.795Z,5.80
2018-12-21T01:01:16.738Z,5.75
2018-12-21T01:06:19.733Z,5.76
2018-12-21T01:11:22.974Z,5.76
2018-12-21T01:16:25.887Z,5.75
2018-12-21T01:21:29.485Z,5.74
2018-12-21T01:26:32.909Z,5.77
2018-12-21T01:31:35.821Z,5.78
2018-12-21T01:36:38.842Z,5.79
2018-12-21T01:41:41.929Z,5.79
2018-12-21T01:46:44.849Z,5.82
2018-12-21T01:51:47.798Z,5.82
2018-12-21T01:56:50.595Z,5.81
2018-12-21T02:01:53.299Z,5.81
2018-12-21T02:06:55.952Z,5.81
2018-12-21T02:11:58.780Z,5.84
2018-12-21T02:17:01.663Z,5.84
2018-12-21T02:22:04.567Z,5.85
2018-12-21T02:27:14.657Z,5.85
2018-12-21T02:32:17.434Z,5.91
2018-12-21T02:37:22.069Z,5.93
2018-12-21T02:42:24.854Z,5.95
2018-12-21T02:47:27.807Z,5.99
2018-12-21T02:52:30.637Z,6.01
2018-12-21T02:57:33.358Z,6.04
2018-12-21T03:02:36.187Z,6.03
2018-12-21T03:07:38.993Z,6.02
2018-12-21T03:12:41.859Z,6.00
2018-12-21T03:17:44.860Z,6.00
2018-12-21T03:22:47.383Z,5.99
2018-12-21T03:27:50.314Z,6.02
2018-12-21T03:32:53.127Z,5.98
2018-12-21T03:37:56.013Z,5.99
2018-12-21T03:42:58.864Z,6.00
2018-12-21T03:48:01.437Z,6.03
2018-12-21T03:53:04.355Z,6.02
2018-12-21T03:58:07.962Z,6.02
2018-12-21T04:03:10.521Z,6.02
2018-12-21T04:08:13.392Z,6.05
2018-12-21T04:13:16.244Z,6.06
2018-12-21T04:18:19.075Z,6.08
2018-12-21T04:23:21.873Z,6.10
2018-12-21T04:28:24.681Z,6.13
2018-12-21T04:33:27.358Z,6.16
2018-12-21T04:38:30.158Z,6.18
2018-12-21T04:43:32.827Z,6.21
2018-12-21T04:48:35.643Z,6.21
2018-12-21T04:53:38.284Z,6.21
2018-12-21T04:58:40.806Z,6.21
2018-12-21T05:03:43.633Z,6.21
2018-12-21T05:08:46.513Z,6.20
2018-12-21T05:13:49.096Z,6.20
2018-12-21T05:18:52.058Z,6.18
2018-12-21T05:23:55.046Z,6.18
2018-12-21T05:28:57.896Z,6.19
2018-12-21T05:34:00.577Z,6.19
2018-12-21T05:39:05.162Z,6.21
2018-12-21T05:44:07.948Z,6.20
2018-12-21T05:49:10.861Z,6.20
2018-12-21T05:54:14.072Z,6.19
2018-12-21T05:59:17.152Z,6.20
2018-12-21T06:04:20.063Z,6.23
2018-12-21T06:09:22.912Z,6.19
2018-12-21T06:14:25.726Z,6.21
2018-12-21T06:19:28.650Z,6.24
2018-12-21T06:24:31.463Z,6.24
2018-12-21T06:29:34.825Z,6.26
2018-12-21T06:34:37.553Z,6.28
2018-12-21T06:39:40.354Z,6.31
2018-12-21T06:44:43.028Z,6.31
2018-12-21T06:49:45.903Z,6.34
2018-12-21T06:54:48.936Z,6.34
2018-12-21T06:59:51.924Z,6.37
2018-12-21T07:04:54.683Z,6.38
2018-12-21T07:09:57.509Z,6.40
2018-12-21T07:15:00.485Z,6.41
2018-12-21T07:20:04.004Z,6.43
2018-12-21T07:25:08.334Z,6.44
2018-12-21T07:30:11.867Z,6.46
2018-12-21T07:35:16.773Z,6.45
2018-12-21T07:40:19.750Z,6.48
2018-12-21T07:45:22.676Z,6.48
2018-12-21T07:50:25.484Z,6.51
2018-12-21T07:55:28.258Z,6.52
2018-12-21T08:00:31.179Z,6.50
2018-12-21T08:05:34.074Z,6.51
2018-12-21T08:10:36.852Z,6.56
2018-12-21T08:15:39.686Z,6.57
2018-12-21T08:20:42.686Z,6.58
2018-12-21T08:25:45.344Z,6.57
2018-12-21T08:30:48.426Z,6.59
2018-12-21T08:35:51.202Z,6.62
2018-12-21T08:40:54.314Z,6.63
2018-12-21T08:45:57.301Z,6.64
2018-12-21T08:51:00.334Z,6.65
2018-12-21T08:56:03.222Z,6.66
2018-12-21T09:01:07.261Z,6.63
2018-12-21T09:06:18.249Z,6.62
2018-12-21T09:11:15.204Z,6.65
2018-12-21T09:16:18.169Z,6.71
2018-12-21T09:21:20.961Z,6.70
2018-12-21T09:26:23.811Z,6.75
2018-12-21T09:31:28.787Z,6.78
2018-12-21T09:36:32.797Z,6.82
2018-12-21T09:41:35.632Z,6.85
2018-12-21T09:46:38.576Z,6.89
2018-12-21T09:51:41.490Z,6.92
2018-12-21T09:56:44.415Z,6.97
2018-12-21T10:01:47.458Z,7.01
2018-12-21T10:06:50.248Z,7.07
2018-12-21T10:11:53.090Z,7.13
2018-12-21T10:16:55.980Z,7.16
2018-12-21T10:21:58.864Z,7.17
2018-12-21T10:27:01.590Z,7.20
2018-12-21T10:32:04.533Z,7.22
2018-12-21T10:37:08.509Z,7.23
2018-12-21T10:42:11.440Z,7.26
2018-12-21T10:47:14.398Z,7.31
2018-12-21T10:52:17.291Z,7.35
2018-12-21T10:57:20.270Z,7.37
2018-12-21T11:02:23.266Z,7.38
2018-12-21T11:07:26.164Z,7.39
2018-12-21T11:12:28.842Z,7.40
2018-12-21T11:17:31.689Z,7.42
2018-12-21T11:22:34.451Z,7.43
2018-12-21T11:27:37.513Z,7.49
2018-12-21T11:32:41.177Z,7.51
2018-12-21T11:37:44.013Z,7.53
2018-12-21T11:42:46.897Z,7.55
2018-12-21T11:48:11.394Z,7.55
2018-12-21T11:53:15.257Z,7.52
2018-12-21T11:58:18.140Z,7.50
2018-12-21T12:03:21.208Z,7.53
2018-12-21T12:08:24.052Z,7.56
2018-12-21T12:13:26.948Z,7.56
2018-12-21T12:18:29.713Z,7.59
2018-12-21T12:25:40.928Z,7.59
2018-12-21T12:30:43.788Z,7.58
2018-12-21T12:35:46.666Z,7.58
2018-12-21T12:40:49.633Z,7.56
2018-12-21T12:45:52.668Z,7.52
2018-12-21T12:50:55.571Z,7.51
2018-12-21T12:55:58.478Z,7.47
2018-12-21T13:01:01.196Z,7.44
2018-12-21T13:06:05.388Z,7.40
2018-12-21T13:16:23.291Z,7.21
2018-12-21T13:21:26.446Z,7.16
2018-12-21T13:26:29.325Z,7.13
2018-12-21T13:31:32.258Z,7.13
2018-12-21T13:36:36.586Z,7.10
2018-12-21T13:41:39.609Z,7.08
2018-12-21T13:46:42.521Z,7.06
2018-12-21T13:51:45.514Z,7.05
2018-12-21T13:56:48.317Z,7.05
2018-12-21T14:01:51.226Z,7.05
2018-12-21T14:06:54.023Z,7.04
2018-12-21T14:11:56.906Z,7.08
2018-12-21T14:16:59.838Z,7.04
2018-12-21T14:22:02.737Z,7.00
2018-12-21T14:27:05.872Z,7.00
2018-12-21T14:32:08.675Z,7.01
2018-12-21T14:37:11.421Z,6.98
2018-12-21T14:42:14.214Z,6.97
2018-12-21T14:47:16.988Z,6.95
2018-12-21T14:52:19.684Z,6.91
2018-12-21T14:57:22.474Z,6.91
2018-12-21T15:02:25.892Z,6.90
2018-12-21T15:07:28.872Z,6.89
2018-12-21T15:12:31.571Z,6.89
2018-12-21T15:17:34.368Z,6.87
2018-12-21T15:22:37.232Z,6.88
2018-12-21T15:27:39.906Z,6.89
2018-12-21T15:32:42.900Z,6.89
2018-12-21T15:37:45.894Z,6.89
2018-12-21T15:42:48.662Z,6.89
2018-12-21T15:47:51.415Z,6.91
2018-12-21T15:52:54.227Z,6.92
2018-12-21T15:57:58.128Z,6.91
2018-12-21T16:03:03.022Z,6.93
2018-12-21T16:08:06.111Z,6.93
2018-12-21T16:13:08.914Z,6.94
2018-12-21T16:18:11.606Z,6.95
2018-12-21T16:23:21.161Z,6.96
2018-12-21T16:28:23.965Z,7.00
2018-12-21T16:33:26.779Z,7.00
2018-12-21T16:38:29.596Z,7.02
2018-12-21T16:43:32.485Z,7.04
2018-12-21T16:48:35.578Z,7.06
2018-12-21T16:53:38.237Z,7.07
2018-12-21T16:58:40.983Z,7.07
2018-12-21T17:03:43.786Z,7.07
2018-12-21T17:08:46.885Z,7.08
2018-12-21T17:13:49.882Z,7.09
2018-12-21T17:18:52.888Z,7.11
2018-12-21T17:23:55.728Z,7.11
2018-12-21T17:28:58.313Z,7.10
2018-12-21T17:34:01.242Z,7.09
2018-12-21T17:39:07.040Z,7.09
2018-12-21T17:44:10.295Z,7.12
2018-12-21T17:49:14.866Z,7.14
2018-12-21T17:59:27.071Z,7.18
2018-12-21T18:04:30.450Z,7.22
2018-12-21T18:09:35.507Z,7.28
2018-12-21T18:14:38.429Z,7.34
2018-12-21T18:19:41.229Z,7.43
2018-12-21T18:24:47.166Z,7.57
2018-12-21T18:29:49.954Z,7.70
2018-12-21T18:34:53.093Z,7.84
2018-12-21T18:39:55.981Z,7.87
2018-12-21T18:44:59.545Z,8.10
2018-12-21T18:50:02.437Z,8.18
2018-12-21T18:55:07.761Z,8.35
2018-12-21T19:00:14.087Z,8.43
2018-12-21T19:05:16.946Z,8.54
2018-12-21T19:10:20.854Z,8.63
2018-12-21T19:15:25.917Z,8.74
2018-12-21T19:20:28.680Z,8.86
2018-12-21T19:25:31.615Z,8.91
2018-12-21T19:30:34.687Z,8.98
2018-12-21T19:35:37.781Z,9.11
2018-12-21T19:40:40.831Z,9.25
2018-12-21T19:45:43.954Z,9.32
2018-12-21T19:50:46.886Z,9.40
2018-12-21T19:56:16.197Z,9.46
2018-12-21T20:01:19.171Z,9.44
2018-12-21T20:06:21.820Z,9.43
2018-12-21T20:11:24.621Z,9.43
2018-12-21T20:16:27.560Z,9.39
2018-12-21T20:21:30.324Z,9.40
2018-12-21T20:26:33.104Z,9.43
2018-12-21T20:31:37.211Z,9.47
2018-12-21T20:36:40.123Z,9.61
2018-12-21T20:41:43.346Z,9.73
2018-12-21T20:46:46.352Z,9.79
2018-12-21T20:51:49.383Z,9.90
2018-12-21T20:56:59.137Z,9.96
2018-12-21T21:02:01.980Z,10.03
2018-12-21T21:07:04.865Z,10.07
2018-12-21T21:12:07.564Z,10.20
2018-12-21T21:17:10.544Z,10.24
2018-12-21T21:22:13.383Z,10.31
2018-12-21T21:27:16.012Z,10.37
2018-12-21T21:32:18.843Z,10.41
2018-12-21T21:37:21.770Z,10.49
2018-12-21T21:42:24.470Z,10.65
2018-12-21T21:47:28.373Z,10.74
2018-12-21T21:52:31.164Z,10.83
2018-12-21T21:57:39.207Z,10.84
2018-12-21T22:02:38.940Z,10.85
2018-12-21T22:07:41.831Z,10.89
2018-12-21T22:12:44.561Z,10.87
2018-12-21T22:17:47.279Z,10.84
2018-12-21T22:22:50.089Z,10.77
2018-12-21T22:27:53.108Z,10.76
2018-12-21T22:32:56.026Z,10.66
2018-12-21T22:37:58.786Z,10.59
2018-12-21T22:43:01.538Z,10.49
2018-12-21T22:48:04.403Z,10.34
2018-12-21T22:53:07.263Z,10.27
2018-12-21T22:58:10.322Z,10.22
2018-12-21T23:03:12.888Z,10.04
2018-12-21T23:08:15.820Z,9.91
2018-12-21T23:13:21.208Z,9.81
2018-12-21T23:18:26.063Z,9.75
2018-12-21T23:23:29.243Z,9.68
2018-12-21T23:28:32.302Z,9.70
2018-12-21T23:33:35.182Z,9.71
2018-12-21T23:38:37.871Z,9.72
2018-12-21T23:43:43.355Z,9.70
2018-12-21T23:48:46.295Z,9.70
2018-12-21T23:53:49.195Z,9.72
2018-12-21T23:58:51.893Z,9.75
